Time;durP1;ratioP1;P1;durP2;ratioP2;P2;SDS_P1;SDS_P2;PMS_P1;PMS_P2;Temp;Humidity;BMP_temperature;BMP_pressure;BME280_temperature;BME280_humidity;BME280_pressure;Samples;Min_cycle;Max_cycle;Signal;HPM_P1;HPM_P2
2023/08/17 00:01:39;;;;;;;2.53;1.25;;;16.50;99.90;;;;;;5091139;28;20119;-70
2023/08/17 00:04:05;;;;;;;3.33;1.15;;;16.50;99.90;;;;;;5091236;28;20043;-70
2023/08/17 00:06:31;;;;;;;2.33;1.25;;;16.50;99.90;;;;;;5072895;28;20047;-70
2023/08/17 00:08:56;;;;;;;2.17;1.20;;;16.50;99.90;;;;;;5091133;28;20048;-70
2023/08/17 00:11:22;;;;;;;2.28;1.10;;;16.50;99.90;;;;;;5089560;28;20143;-70
2023/08/17 00:13:48;;;;;;;2.53;1.17;;;16.40;99.90;;;;;;5089370;28;20435;-70
2023/08/17 00:16:14;;;;;;;2.63;1.15;;;16.40;99.90;;;;;;5091123;28;20060;-70
2023/08/17 00:18:39;;;;;;;2.90;1.30;;;16.40;99.90;;;;;;5090971;28;20081;-70
2023/08/17 00:21:05;;;;;;;3.03;1.40;;;16.40;99.90;;;;;;5089685;28;20048;-70
2023/08/17 00:23:30;;;;;;;3.50;1.10;;;16.40;99.90;;;;;;5090737;28;20044;-70
2023/08/17 00:25:56;;;;;;;3.05;1.30;;;16.40;99.90;;;;;;5090763;28;20131;-71
2023/08/17 00:28:21;;;;;;;4.88;1.58;;;16.40;99.90;;;;;;5123152;27;20087;-70
2023/08/17 00:30:47;;;;;;;3.80;1.25;;;16.40;99.90;;;;;;5091013;28;20048;-70
2023/08/17 00:33:12;;;;;;;5.65;1.50;;;16.40;99.90;;;;;;5123519;27;20404;-70
2023/08/17 00:35:38;;;;;;;4.03;1.38;;;16.40;99.90;;;;;;5091182;28;20073;-70
2023/08/17 00:38:04;;;;;;;2.15;1.27;;;16.40;99.90;;;;;;5089734;28;20036;-70
2023/08/17 00:40:29;;;;;;;4.65;1.60;;;16.40;99.90;;;;;;5089447;28;20512;-70
2023/08/17 00:42:55;;;;;;;3.38;1.20;;;16.40;99.90;;;;;;5090887;28;20071;-70
2023/08/17 00:45:23;;;;;;;5.28;1.40;;;16.30;99.90;;;;;;5089381;28;20052;-70
2023/08/17 00:47:48;;;;;;;3.40;1.10;;;16.40;99.90;;;;;;5090687;28;20350;-70
2023/08/17 00:50:15;;;;;;;3.85;1.30;;;16.40;99.90;;;;;;5072342;28;20044;-70
2023/08/17 00:52:42;;;;;;;4.65;1.23;;;16.40;99.90;;;;;;5089458;28;20092;-70
2023/08/17 00:55:09;;;;;;;3.03;1.00;;;16.30;99.90;;;;;;5123102;27;20061;-70
2023/08/17 00:57:35;;;;;;;5.10;1.17;;;16.30;99.90;;;;;;5090441;28;20490;-70
2023/08/17 01:00:02;;;;;;;2.20;0.85;;;16.30;99.90;;;;;;5090571;28;20043;-70
2023/08/17 01:02:28;;;;;;;2.85;1.15;;;16.30;99.90;;;;;;5090437;28;20484;-70
2023/08/17 01:04:54;;;;;;;4.28;1.20;;;16.30;99.90;;;;;;5089453;28;20036;-70
2023/08/17 01:07:19;;;;;;;2.72;1.20;;;16.20;99.90;;;;;;5089091;28;20439;-70
2023/08/17 01:09:45;;;;;;;2.05;1.15;;;16.20;99.90;;;;;;5090100;28;20036;-70
2023/08/17 01:12:30;;;;;;;2.90;1.00;;;16.20;99.90;;;;;;5090435;28;20119;-70
2023/08/17 01:15:08;;;;;;;2.30;0.90;;;16.20;99.90;;;;;;5072525;28;20036;-70
2023/08/17 01:17:46;;;;;;;3.63;1.05;;;16.20;99.90;;;;;;5089103;28;20140;-71
2023/08/17 01:20:14;;;;;;;2.10;1.10;;;16.20;99.90;;;;;;5072561;28;20051;-70
2023/08/17 01:22:45;;;;;;;3.40;1.00;;;16.20;99.90;;;;;;5090308;28;20711;-70
2023/08/17 01:25:11;;;;;;;3.65;1.17;;;16.20;99.90;;;;;;5123139;28;20123;-70
2023/08/17 01:27:46;;;;;;;2.70;1.10;;;16.10;99.90;;;;;;5092580;28;20155;-70
2023/08/17 01:30:13;;;;;;;2.20;1.23;;;16.10;99.90;;;;;;5092842;28;20080;-70
2023/08/17 01:33:06;;;;;;;5.88;1.70;;;16.10;99.90;;;;;;5092633;28;20040;-70
2023/08/17 01:36:00;;;;;;;2.72;0.98;;;16.10;99.90;;;;;;5093942;28;20075;-70
2023/08/17 01:38:29;;;;;;;1.95;0.95;;;16.10;99.90;;;;;;5094153;28;20149;-70
2023/08/17 01:40:56;;;;;;;4.45;1.50;;;16.10;99.90;;;;;;5092419;28;20576;-70
2023/08/17 01:43:22;;;;;;;4.13;1.13;;;16.10;99.90;;;;;;5093746;28;20494;-70
2023/08/17 01:45:48;;;;;;;1.77;1.10;;;16.00;99.90;;;;;;5092467;28;20059;-70
2023/08/17 01:48:13;;;;;;;2.08;0.90;;;16.00;99.90;;;;;;5092441;28;20043;-70
2023/08/17 01:50:39;;;;;;;4.78;1.33;;;16.00;99.90;;;;;;5093639;28;20118;-70
2023/08/17 01:53:05;;;;;;;3.85;1.25;;;16.00;99.90;;;;;;5093711;28;20036;-70
2023/08/17 01:55:30;;;;;;;1.70;1.00;;;16.00;99.90;;;;;;5092188;28;20035;-70
2023/08/17 01:57:56;;;;;;;3.13;1.08;;;16.10;99.90;;;;;;5093756;28;20043;-71
2023/08/17 02:00:21;;;;;;;4.90;1.15;;;16.10;99.90;;;;;;5092226;28;20043;-70
2023/08/17 02:02:47;;;;;;;3.88;1.25;;;16.00;99.90;;;;;;5092213;28;20051;-70
2023/08/17 02:05:13;;;;;;;3.60;1.10;;;16.10;99.90;;;;;;5092250;28;20044;-70
2023/08/17 02:07:38;;;;;;;6.70;1.10;;;16.00;99.90;;;;;;5093438;28;20048;-71
2023/08/17 02:10:04;;;;;;;3.20;1.20;;;16.00;99.90;;;;;;5092100;28;20038;-70
2023/08/17 02:12:31;;;;;;;5.82;1.30;;;16.00;99.90;;;;;;5093448;28;20051;-70
2023/08/17 02:14:56;;;;;;;1.77;1.08;;;16.00;99.90;;;;;;5093642;28;20047;-70
2023/08/17 02:17:22;;;;;;;1.95;1.00;;;15.90;99.90;;;;;;5091902;28;20051;-70
2023/08/17 02:19:48;;;;;;;1.70;0.90;;;15.90;99.90;;;;;;5074964;28;20075;-71
2023/08/17 02:22:14;;;;;;;4.47;1.55;;;15.90;99.90;;;;;;5074972;28;20077;-70
2023/08/17 02:24:40;;;;;;;2.88;1.42;;;15.80;99.90;;;;;;5092775;28;20067;-70
2023/08/17 02:27:06;;;;;;;5.47;1.67;;;15.80;99.90;;;;;;5091463;28;20457;-71
2023/08/17 02:29:32;;;;;;;3.97;1.70;;;15.80;99.90;;;;;;5091503;28;20124;-70
2023/08/17 02:31:57;;;;;;;3.92;1.30;;;15.80;99.90;;;;;;5093114;28;20123;-70
2023/08/17 02:34:23;;;;;;;2.53;1.25;;;15.80;99.90;;;;;;5091744;28;20044;-70
2023/08/17 02:36:48;;;;;;;1.95;1.20;;;15.80;99.90;;;;;;5125582;27;20148;-70
2023/08/17 02:39:14;;;;;;;4.53;1.35;;;15.80;99.90;;;;;;5092513;28;20028;-70
2023/08/17 02:41:40;;;;;;;5.32;1.45;;;15.80;99.90;;;;;;5092756;28;20562;-70
2023/08/17 02:44:06;;;;;;;4.00;1.27;;;15.80;99.90;;;;;;5092874;28;20040;-71
2023/08/17 02:46:31;;;;;;;7.05;1.45;;;15.80;99.90;;;;;;5125603;27;20040;-70
2023/08/17 02:48:57;;;;;;;4.45;1.25;;;15.80;99.90;;;;;;5091490;28;20108;-70
2023/08/17 02:51:23;;;;;;;4.38;1.40;;;15.80;99.90;;;;;;5091247;28;20393;-70
2023/08/17 02:53:48;;;;;;;4.45;1.52;;;15.80;99.90;;;;;;5092317;28;20501;-70
2023/08/17 02:56:14;;;;;;;3.85;1.08;;;15.70;99.90;;;;;;5091208;28;20043;-70
2023/08/17 02:58:42;;;;;;;3.53;1.33;;;15.70;99.90;;;;;;5092374;28;20040;-70
2023/08/17 03:01:08;;;;;;;2.28;1.13;;;15.70;99.90;;;;;;5092166;28;20040;-70
2023/08/17 03:03:34;;;;;;;3.22;1.00;;;15.70;99.90;;;;;;5090973;28;20133;-70
2023/08/17 03:06:01;;;;;;;1.98;1.05;;;15.60;99.90;;;;;;5092259;28;20370;-70
2023/08/17 03:08:26;;;;;;;3.75;1.48;;;15.70;99.90;;;;;;5090748;28;20400;-70
2023/08/17 03:10:52;;;;;;;4.57;1.63;;;15.70;99.90;;;;;;5092484;28;20417;-70
2023/08/17 03:13:17;;;;;;;1.95;1.00;;;15.60;99.90;;;;;;5092196;28;20489;-70
2023/08/17 03:15:43;;;;;;;3.78;1.30;;;15.60;99.90;;;;;;5090834;28;20382;-70
2023/08/17 03:18:08;;;;;;;2.53;1.25;;;15.60;99.90;;;;;;5090725;28;20387;-70
2023/08/17 03:20:34;;;;;;;4.00;1.23;;;15.60;99.90;;;;;;5091968;28;20071;-70
2023/08/17 03:23:00;;;;;;;3.03;1.50;;;15.60;99.90;;;;;;5090776;28;20462;-70
2023/08/17 03:25:25;;;;;;;4.95;1.33;;;15.60;99.90;;;;;;5090674;28;20537;-70
2023/08/17 03:27:51;;;;;;;3.53;1.27;;;15.60;99.90;;;;;;5124269;27;20414;-70
2023/08/17 03:30:16;;;;;;;1.98;1.00;;;15.60;99.90;;;;;;5092055;28;20044;-71
2023/08/17 03:32:42;;;;;;;2.55;1.15;;;15.60;99.90;;;;;;5073607;28;20115;-71
2023/08/17 03:35:08;;;;;;;4.88;1.42;;;15.50;99.90;;;;;;5073560;28;20040;-70
2023/08/17 03:37:33;;;;;;;3.03;1.67;;;15.50;99.90;;;;;;5091392;28;20040;-70
2023/08/17 03:40:00;;;;;;;2.45;1.45;;;15.50;99.90;;;;;;5091957;28;20043;-70
2023/08/17 03:42:26;;;;;;;3.30;1.25;;;15.60;99.90;;;;;;5091850;28;20118;-71
2023/08/17 03:44:52;;;;;;;2.95;1.35;;;15.60;99.90;;;;;;5091744;28;20080;-70
2023/08/17 03:47:18;;;;;;;4.28;1.85;;;15.60;99.90;;;;;;5073277;28;20118;-70
2023/08/17 03:49:43;;;;;;;3.05;1.50;;;15.60;99.90;;;;;;5090528;28;20037;-70
2023/08/17 03:52:09;;;;;;;4.07;1.60;;;15.60;99.90;;;;;;5091056;28;20109;-70
2023/08/17 03:54:35;;;;;;;2.30;1.20;;;15.60;99.90;;;;;;5073151;28;20093;-71
2023/08/17 03:57:01;;;;;;;3.90;1.67;;;15.60;99.90;;;;;;5091474;28;20082;-71
2023/08/17 03:59:27;;;;;;;3.75;1.70;;;15.60;99.90;;;;;;5124114;27;20052;-71
2023/08/17 04:01:52;;;;;;;4.93;1.50;;;15.60;99.90;;;;;;5073277;28;20047;-70
2023/08/17 04:04:18;;;;;;;3.78;1.63;;;15.60;99.90;;;;;;5091180;28;20071;-70
2023/08/17 04:06:44;;;;;;;3.95;1.60;;;15.60;99.90;;;;;;5091036;28;20444;-70
2023/08/17 04:09:09;;;;;;;3.25;1.55;;;15.70;99.90;;;;;;5123889;27;20053;-70
2023/08/17 04:11:36;;;;;;;3.70;1.65;;;15.70;99.90;;;;;;5072819;28;20040;-71
2023/08/17 04:14:02;;;;;;;3.05;1.48;;;15.60;99.90;;;;;;5091054;28;20040;-70
2023/08/17 04:16:28;;;;;;;3.65;1.80;;;15.60;99.90;;;;;;5091083;28;20103;-70
2023/08/17 04:18:54;;;;;;;4.38;1.60;;;15.70;99.90;;;;;;5089875;28;20083;-70
2023/08/17 04:21:20;;;;;;;2.67;1.50;;;15.70;99.90;;;;;;5089538;28;20036;-71
2023/08/17 04:23:46;;;;;;;1.85;1.02;;;15.70;99.90;;;;;;5091018;28;20040;-70
2023/08/17 04:26:11;;;;;;;2.55;1.35;;;15.70;99.90;;;;;;5090592;28;20442;-70
2023/08/17 04:28:37;;;;;;;2.90;1.60;;;15.70;99.90;;;;;;5089457;28;20052;-70
2023/08/17 04:31:03;;;;;;;5.30;1.73;;;15.70;99.90;;;;;;5090679;28;20067;-70
2023/08/17 04:33:28;;;;;;;2.45;1.30;;;15.70;99.90;;;;;;5090772;28;20047;-70
2023/08/17 04:35:54;;;;;;;3.42;1.30;;;15.70;99.90;;;;;;5090797;28;20032;-70
2023/08/17 04:38:20;;;;;;;5.57;1.25;;;15.70;99.90;;;;;;5089618;28;20044;-71
2023/08/17 04:40:46;;;;;;;3.17;1.50;;;15.70;99.90;;;;;;5090751;28;20036;-70
2023/08/17 04:43:11;;;;;;;4.05;1.10;;;15.70;99.90;;;;;;5089358;28;20039;-71
2023/08/17 04:45:37;;;;;;;4.43;1.38;;;15.70;99.90;;;;;;5089384;28;20040;-70
2023/08/17 04:48:03;;;;;;;3.42;1.30;;;15.80;99.90;;;;;;5090482;28;20048;-70
2023/08/17 04:50:29;;;;;;;2.42;1.45;;;15.70;99.90;;;;;;5089125;28;20050;-71
2023/08/17 04:52:55;;;;;;;3.85;1.60;;;15.80;99.90;;;;;;5091004;28;20111;-70
2023/08/17 04:55:20;;;;;;;5.90;1.65;;;15.80;99.90;;;;;;5123303;28;20094;-70
2023/08/17 04:57:46;;;;;;;4.13;1.27;;;15.80;99.90;;;;;;5090698;28;20089;-70
2023/08/17 05:00:13;;;;;;;2.78;1.10;;;15.80;99.90;;;;;;5091037;28;20397;-70
2023/08/17 05:02:39;;;;;;;2.65;1.02;;;15.80;99.90;;;;;;5094524;28;20071;-70
2023/08/17 05:05:06;;;;;;;5.53;1.60;;;15.80;99.90;;;;;;5093325;28;20032;-70
2023/08/17 05:07:32;;;;;;;2.33;1.40;;;15.80;99.90;;;;;;5093512;28;20097;-70
2023/08/17 05:09:57;;;;;;;4.30;1.20;;;15.80;99.90;;;;;;5093473;28;20424;-71
2023/08/17 05:12:23;;;;;;;2.50;1.25;;;15.80;99.90;;;;;;5093161;28;20539;-70
2023/08/17 05:14:49;;;;;;;5.20;1.15;;;15.80;99.90;;;;;;5093192;28;20036;-70
2023/08/17 05:17:14;;;;;;;2.60;1.00;;;15.80;99.90;;;;;;5093161;28;20036;-70
2023/08/17 05:19:41;;;;;;;3.25;1.20;;;15.80;99.90;;;;;;5092735;28;20039;-70
2023/08/17 05:22:11;;;;;;;3.33;1.15;;;15.80;99.90;;;;;;5094390;28;20048;-71
2023/08/17 05:24:36;;;;;;;3.70;1.30;;;15.80;99.90;;;;;;5093132;28;20054;-70
2023/08/17 05:27:02;;;;;;;4.03;1.40;;;15.90;99.90;;;;;;5093967;28;20052;-70
2023/08/17 05:29:28;;;;;;;3.47;1.10;;;15.80;99.90;;;;;;5092717;28;20059;-70
2023/08/17 05:31:53;;;;;;;7.25;1.33;;;15.80;99.90;;;;;;5094247;28;20081;-70
2023/08/17 05:34:19;;;;;;;2.45;1.30;;;15.80;99.90;;;;;;5093846;28;20032;-70
2023/08/17 05:36:44;;;;;;;4.15;1.55;;;15.80;99.90;;;;;;5094516;28;20478;-70
2023/08/17 05:39:10;;;;;;;2.22;1.00;;;15.90;99.90;;;;;;5092624;28;20040;-70
2023/08/17 05:41:36;;;;;;;3.17;0.98;;;15.90;99.90;;;;;;5126718;27;20044;-70
2023/08/17 05:44:02;;;;;;;4.03;1.30;;;15.90;99.90;;;;;;5126753;27;20032;-70
2023/08/17 05:46:27;;;;;;;4.45;1.58;;;15.90;99.90;;;;;;5093877;28;20040;-70
2023/08/17 05:48:53;;;;;;;2.40;1.38;;;15.90;99.90;;;;;;5093786;28;20119;-70
2023/08/17 05:51:19;;;;;;;5.00;1.30;;;15.90;99.90;;;;;;5092558;28;20439;-71
2023/08/17 05:53:44;;;;;;;3.03;1.13;;;16.00;99.90;;;;;;5093802;28;20032;-70
2023/08/17 05:56:10;;;;;;;2.25;1.30;;;16.00;99.90;;;;;;5092272;28;20512;-71
2023/08/17 05:58:36;;;;;;;5.45;1.40;;;16.00;99.90;;;;;;5126447;27;20047;-70
2023/08/17 06:01:07;;;;;;;3.08;1.10;;;16.00;99.90;;;;;;5092387;28;20044;-70
2023/08/17 06:03:33;;;;;;;4.68;1.20;;;16.00;99.90;;;;;;5093100;28;20333;-70
2023/08/17 06:05:59;;;;;;;3.75;1.75;;;16.00;99.90;;;;;;5092279;28;20044;-70
2023/08/17 06:08:24;;;;;;;4.45;1.35;;;16.00;99.90;;;;;;5093506;28;20382;-71
2023/08/17 06:10:50;;;;;;;6.57;1.55;;;16.10;99.90;;;;;;5093489;28;20040;-70
2023/08/17 06:13:15;;;;;;;1.65;0.70;;;16.10;99.90;;;;;;5074586;28;20040;-70
2023/08/17 06:15:41;;;;;;;3.13;1.00;;;16.10;99.90;;;;;;5092253;28;20036;-70
2023/08/17 06:18:07;;;;;;;1.88;0.80;;;16.10;99.90;;;;;;5093114;28;20039;-70
2023/08/17 06:20:32;;;;;;;2.42;1.02;;;16.10;99.90;;;;;;5091849;28;20401;-70
2023/08/17 06:22:58;;;;;;;2.35;0.95;;;16.10;99.90;;;;;;5093219;28;20405;-70
2023/08/17 06:25:24;;;;;;;3.60;1.20;;;16.20;99.90;;;;;;5091997;28;20397;-70
2023/08/17 06:27:50;;;;;;;2.13;1.02;;;16.20;99.90;;;;;;5092784;28;20071;-70
2023/08/17 06:30:15;;;;;;;4.50;0.90;;;16.20;99.90;;;;;;5093019;28;20084;-70
2023/08/17 06:32:41;;;;;;;2.08;1.05;;;16.20;99.90;;;;;;5091401;28;20083;-70
2023/08/17 06:35:07;;;;;;;4.43;1.08;;;16.20;99.90;;;;;;5093087;28;20054;-70
2023/08/17 06:37:33;;;;;;;1.95;1.00;;;16.30;99.90;;;;;;5092818;28;20595;-70
2023/08/17 06:39:58;;;;;;;3.10;1.15;;;16.30;99.90;;;;;;5092921;28;20029;-70
2023/08/17 06:42:24;;;;;;;4.60;1.25;;;16.30;99.90;;;;;;5092817;28;20044;-70
2023/08/17 06:44:49;;;;;;;1.73;0.85;;;16.40;99.90;;;;;;5091462;28;20074;-70
2023/08/17 06:47:15;;;;;;;1.63;0.75;;;16.40;99.90;;;;;;5074662;28;20036;-71
2023/08/17 06:49:41;;;;;;;5.38;1.35;;;16.40;99.90;;;;;;5091224;28;20040;-70
2023/08/17 06:52:06;;;;;;;2.33;0.88;;;16.50;99.90;;;;;;5092481;28;20044;-70
2023/08/17 06:54:32;;;;;;;3.53;0.93;;;16.50;99.90;;;;;;5091163;28;20032;-70
2023/08/17 06:56:58;;;;;;;3.85;1.02;;;16.60;99.90;;;;;;5092544;28;20499;-71
2023/08/17 06:59:24;;;;;;;4.43;1.10;;;16.60;99.90;;;;;;5092627;28;20036;-70
2023/08/17 07:01:50;;;;;;;2.22;0.90;;;16.60;99.90;;;;;;5090881;28;20050;-70
2023/08/17 07:04:15;;;;;;;3.17;1.02;;;16.60;99.90;;;;;;5092390;28;20040;-70
2023/08/17 07:06:41;;;;;;;3.42;0.90;;;16.70;99.90;;;;;;5092265;28;20128;-71
2023/08/17 07:09:06;;;;;;;3.33;1.02;;;16.70;99.90;;;;;;5092321;28;20049;-71
2023/08/17 07:11:32;;;;;;;2.10;0.80;;;16.70;99.90;;;;;;5092247;28;20201;-71
2023/08/17 07:13:58;;;;;;;3.83;0.70;;;16.80;99.90;;;;;;5090796;28;20462;-71
2023/08/17 07:16:23;;;;;;;1.88;0.80;;;16.80;99.90;;;;;;5092153;28;20090;-70
2023/08/17 07:18:49;;;;;;;1.75;0.68;;;16.80;99.90;;;;;;5092248;28;20151;-70
2023/08/17 07:21:15;;;;;;;1.60;0.50;;;16.80;99.90;;;;;;5092295;28;20080;-70
2023/08/17 07:23:44;;;;;;;4.95;0.70;;;16.80;99.90;;;;;;5091966;28;20131;-70
2023/08/17 07:26:10;;;;;;;4.32;0.60;;;16.90;99.90;;;;;;5090678;28;20044;-70
2023/08/17 07:28:35;;;;;;;1.88;0.60;;;16.90;99.90;;;;;;5090405;28;20050;-70
2023/08/17 07:31:01;;;;;;;3.08;0.60;;;16.90;99.90;;;;;;5090349;28;20036;-70
2023/08/17 07:33:26;;;;;;;2.42;0.68;;;16.90;99.90;;;;;;5090441;28;20036;-71
2023/08/17 07:35:54;;;;;;;0.82;0.40;;;17.00;99.90;;;;;;5090785;28;20036;-70
2023/08/17 07:38:19;;;;;;;3.67;0.60;;;17.00;99.90;;;;;;5090584;28;20055;-71
2023/08/17 07:40:45;;;;;;;8.63;0.68;;;17.00;99.90;;;;;;5091662;28;20036;-71
2023/08/17 07:43:11;;;;;;;1.20;0.50;;;17.00;99.90;;;;;;5090187;28;20386;-70
2023/08/17 07:45:36;;;;;;;1.83;0.63;;;17.00;99.90;;;;;;5091346;28;20039;-70
2023/08/17 07:48:02;;;;;;;1.35;0.60;;;17.10;99.90;;;;;;5091566;28;20036;-70
2023/08/17 07:50:27;;;;;;;3.30;0.60;;;17.00;99.90;;;;;;5091465;28;20168;-70
2023/08/17 07:52:53;;;;;;;2.03;0.68;;;17.10;99.90;;;;;;5090354;28;20097;-71
2023/08/17 07:55:19;;;;;;;1.45;0.50;;;17.10;99.90;;;;;;5091324;28;20393;-71
2023/08/17 07:57:44;;;;;;;1.42;0.60;;;17.10;99.90;;;;;;5091374;28;20451;-70
2023/08/17 08:00:10;;;;;;;3.08;0.63;;;17.10;99.90;;;;;;5089941;28;20148;-70
2023/08/17 08:02:36;;;;;;;2.42;0.75;;;17.10;99.90;;;;;;5091435;28;20047;-71
2023/08/17 08:05:01;;;;;;;1.85;0.60;;;17.20;99.90;;;;;;5091353;28;20032;-70
2023/08/17 08:07:27;;;;;;;2.05;0.60;;;17.30;99.90;;;;;;5090019;28;20126;-71
2023/08/17 08:09:53;;;;;;;1.83;0.50;;;17.30;99.90;;;;;;5091529;28;20044;-71
2023/08/17 08:12:18;;;;;;;1.67;0.60;;;17.40;99.90;;;;;;5090027;28;20039;-70
2023/08/17 08:14:44;;;;;;;1.95;0.45;;;17.50;99.90;;;;;;5091229;28;20485;-70
2023/08/17 08:17:09;;;;;;;1.33;0.50;;;17.60;99.90;;;;;;5091113;28;20188;-70
2023/08/17 08:19:35;;;;;;;1.75;0.50;;;17.60;99.90;;;;;;5091217;28;20048;-70
2023/08/17 08:22:02;;;;;;;1.02;0.43;;;17.60;99.90;;;;;;5072911;28;20043;-70
2023/08/17 08:24:33;;;;;;;2.88;0.60;;;17.70;99.90;;;;;;5089406;28;20056;-70
2023/08/17 08:26:59;;;;;;;0.80;0.40;;;17.70;99.90;;;;;;5090735;28;20052;-70
2023/08/17 08:29:24;;;;;;;3.25;0.50;;;17.70;99.90;;;;;;5090839;28;20046;-70
2023/08/17 08:31:50;;;;;;;2.22;0.68;;;17.60;99.90;;;;;;5090781;28;20066;-70
2023/08/17 08:34:15;;;;;;;1.23;0.40;;;17.60;99.90;;;;;;5091002;28;20068;-71
2023/08/17 08:36:41;;;;;;;3.28;0.50;;;17.60;99.90;;;;;;5090246;28;20048;-70
2023/08/17 08:39:07;;;;;;;1.60;0.40;;;17.70;99.90;;;;;;5090878;28;20054;-70
2023/08/17 08:41:35;;;;;;;2.15;0.50;;;17.70;99.90;;;;;;5090771;28;20044;-70
2023/08/17 08:44:00;;;;;;;0.77;0.40;;;17.80;99.90;;;;;;5089472;28;20504;-70
2023/08/17 08:46:29;;;;;;;5.00;0.90;;;17.70;99.90;;;;;;5089496;28;20119;-70
2023/08/17 08:48:56;;;;;;;2.58;0.70;;;17.80;99.90;;;;;;5072615;28;20055;-70
2023/08/17 08:51:28;;;;;;;1.25;0.63;;;17.70;99.90;;;;;;5090778;28;20058;-70
2023/08/17 08:54:07;;;;;;;3.65;0.60;;;17.70;99.90;;;;;;5089493;28;20051;-70
2023/08/17 08:56:37;;;;;;;2.75;0.60;;;17.70;99.90;;;;;;5123075;28;20036;-70
2023/08/17 08:59:04;;;;;;;2.80;0.50;;;17.70;99.90;;;;;;5090721;28;20032;-71
2023/08/17 09:01:33;;;;;;;2.42;0.60;;;17.70;99.90;;;;;;5090470;28;20484;-71
2023/08/17 09:04:00;;;;;;;2.95;0.43;;;17.70;99.90;;;;;;5090589;28;20069;-71
2023/08/17 09:06:27;;;;;;;1.88;0.80;;;17.70;99.90;;;;;;5090981;28;20058;-71
2023/08/17 09:08:53;;;;;;;1.77;0.50;;;17.70;99.90;;;;;;5089164;28;20083;-71
2023/08/17 09:11:18;;;;;;;2.00;0.70;;;17.70;99.90;;;;;;5089086;28;20461;-70
2023/08/17 09:13:44;;;;;;;1.70;0.43;;;17.70;99.90;;;;;;5090522;28;20035;-70
2023/08/17 09:16:10;;;;;;;1.02;0.45;;;17.70;99.90;;;;;;5090333;28;20123;-70
2023/08/17 09:18:35;;;;;;;1.45;0.55;;;17.80;99.90;;;;;;5090367;28;20405;-71
2023/08/17 09:21:01;;;;;;;2.95;0.55;;;17.80;99.90;;;;;;5090469;28;20040;-70
2023/08/17 09:23:27;;;;;;;3.08;0.70;;;17.80;99.90;;;;;;5089073;28;20051;-70
2023/08/17 09:25:57;;;;;;;1.55;0.50;;;17.80;99.90;;;;;;5090333;28;20124;-70
2023/08/17 09:28:24;;;;;;;2.50;0.60;;;17.80;99.90;;;;;;5088944;28;20505;-70
2023/08/17 09:31:03;;;;;;;3.75;0.70;;;17.80;99.90;;;;;;5090228;28;20043;-70
2023/08/17 09:33:32;;;;;;;2.60;0.50;;;17.90;99.90;;;;;;5089113;28;20036;-70
2023/08/17 09:35:59;;;;;;;1.48;0.60;;;17.90;99.90;;;;;;5122912;28;20044;-70
2023/08/17 09:38:26;;;;;;;1.20;0.40;;;17.90;99.90;;;;;;5090382;28;20149;-70
2023/08/17 09:40:52;;;;;;;2.42;0.35;;;17.90;99.90;;;;;;5090154;28;20036;-70
2023/08/17 09:43:18;;;;;;;3.92;0.60;;;17.90;99.90;;;;;;5090213;28;20544;-70
2023/08/17 09:45:49;;;;;;;1.60;0.60;;;17.90;99.90;;;;;;5090167;28;20119;-70
2023/08/17 09:48:18;;;;;;;2.10;0.60;;;18.00;99.90;;;;;;5092306;28;20048;-70
2023/08/17 09:50:45;;;;;;;2.53;0.60;;;18.00;99.90;;;;;;5093468;28;20032;-70
2023/08/17 09:53:15;;;;;;;6.28;0.65;;;18.00;99.90;;;;;;5075610;28;20044;-70
2023/08/17 09:55:43;;;;;;;4.40;0.63;;;18.00;99.90;;;;;;5093542;28;20505;-70
2023/08/17 09:58:09;;;;;;;1.88;0.60;;;18.10;99.90;;;;;;5093735;28;20090;-71
2023/08/17 10:00:35;;;;;;;1.27;0.50;;;18.20;99.90;;;;;;5093655;28;20044;-70
2023/08/17 10:03:03;;;;;;;1.75;0.57;;;18.20;99.90;;;;;;5093841;28;20046;-70
2023/08/17 10:05:37;;;;;;;1.98;0.80;;;18.30;99.90;;;;;;5092244;28;20040;-70
2023/08/17 10:08:03;;;;;;;1.85;0.90;;;18.30;99.90;;;;;;5093526;28;20047;-70
2023/08/17 10:10:31;;;;;;;1.13;0.63;;;18.40;99.90;;;;;;5092168;28;20040;-70
2023/08/17 10:13:10;;;;;;;2.80;0.93;;;18.40;99.90;;;;;;5092191;28;20044;-70
2023/08/17 10:16:06;;;;;;;1.70;0.80;;;18.40;99.90;;;;;;5092953;28;20112;-70
2023/08/17 10:18:51;;;;;;;;;;;18.40;99.90;;;;;;5092670;28;20085;-70
2023/08/17 10:21:34;;;;;;;1.60;0.70;;;18.40;99.90;;;;;;5093342;28;19974;-70
2023/08/17 10:24:02;;;;;;;1.85;0.65;;;18.50;99.90;;;;;;5093015;28;20425;-70
2023/08/17 10:26:29;;;;;;;1.30;0.80;;;18.50;99.90;;;;;;5092783;28;20052;-71
2023/08/17 10:28:57;;;;;;;1.85;0.70;;;18.50;99.90;;;;;;5091665;28;20047;-70
2023/08/17 10:31:23;;;;;;;2.08;0.77;;;18.50;99.90;;;;;;5093137;28;20048;-71
2023/08/17 10:33:49;;;;;;;3.08;1.00;;;18.50;99.90;;;;;;5092983;28;20032;-70
2023/08/17 10:36:16;;;;;;;1.73;0.90;;;18.60;99.90;;;;;;5092856;28;20078;-70
2023/08/17 10:38:41;;;;;;;1.92;0.80;;;18.60;99.90;;;;;;5092583;28;20080;-71
2023/08/17 10:41:11;;;;;;;4.95;1.00;;;18.70;99.90;;;;;;5091761;28;20481;-70
2023/08/17 10:43:57;;;;;;;2.42;0.90;;;18.70;99.90;;;;;;5091792;28;20039;-70
2023/08/17 10:46:31;;;;;;;;;;;18.80;99.90;;;;;;5093203;28;20486;-71
2023/08/17 10:49:02;;;;;;;1.58;0.80;;;18.80;99.90;;;;;;5091411;28;20439;-70
2023/08/17 10:51:28;;;;;;;3.55;1.00;;;18.90;99.90;;;;;;5091370;28;20043;-70
2023/08/17 10:53:57;;;;;;;2.25;0.90;;;18.80;99.90;;;;;;5125406;27;20036;-71
2023/08/17 10:56:27;;;;;;;2.63;0.85;;;18.80;99.90;;;;;;5092544;28;20069;-70
2023/08/17 10:58:53;;;;;;;2.58;0.98;;;18.80;99.90;;;;;;5092383;28;20036;-71
2023/08/17 11:01:31;;;;;;;3.30;1.10;;;18.80;99.90;;;;;;5091429;28;20093;-70
2023/08/17 11:04:18;;;;;;;3.47;1.20;;;18.80;99.90;;;;;;5091253;28;20044;-70
2023/08/17 11:06:44;;;;;;;1.88;0.90;;;18.80;99.90;;;;;;5092172;28;20048;-70
2023/08/17 11:09:11;;;;;;;2.88;1.20;;;18.80;99.90;;;;;;5090382;28;20062;-70
2023/08/17 11:11:37;;;;;;;2.67;1.00;;;18.90;99.90;;;;;;5089523;28;20036;-70
2023/08/17 11:14:03;;;;;;;3.45;1.08;;;18.90;99.90;;;;;;5091800;28;20107;-70
2023/08/17 11:16:28;;;;;;;4.57;1.25;;;18.90;99.90;;;;;;5091959;28;20447;-70
2023/08/17 11:18:57;;;;;;;4.53;1.25;;;18.90;99.90;;;;;;5092150;28;20043;-70
2023/08/17 11:21:23;;;;;;;4.60;1.23;;;19.00;99.90;;;;;;5092110;28;20047;-70
2023/08/17 11:23:49;;;;;;;3.33;1.48;;;19.00;99.90;;;;;;5091935;28;20186;-70
2023/08/17 11:26:18;;;;;;;4.40;1.20;;;19.00;99.90;;;;;;5091471;28;20052;-70
2023/08/17 11:28:45;;;;;;;3.30;1.00;;;18.90;99.90;;;;;;5091483;28;20036;-70
2023/08/17 11:31:13;;;;;;;3.60;1.30;;;18.90;99.90;;;;;;5124812;27;20039;-70
2023/08/17 11:33:40;;;;;;;6.10;1.90;;;18.90;99.90;;;;;;5091767;28;20184;-71
2023/08/17 11:36:08;;;;;;;2.72;1.30;;;18.90;99.90;;;;;;5090387;28;20044;-71
2023/08/17 11:38:42;;;;;;;1.88;1.30;;;19.00;99.90;;;;;;5091458;28;20509;-71
2023/08/17 11:41:08;;;;;;;2.17;1.13;;;19.00;99.90;;;;;;5089949;28;20048;-71
2023/08/17 11:43:34;;;;;;;1.98;1.00;;;19.00;99.90;;;;;;5073339;28;20075;-70
2023/08/17 11:46:03;;;;;;;1.90;1.02;;;19.00;99.90;;;;;;5090535;28;20528;-70
2023/08/17 11:48:30;;;;;;;3.20;1.70;;;19.00;99.90;;;;;;5091436;28;20040;-71
2023/08/17 11:50:55;;;;;;;6.65;1.30;;;19.10;99.90;;;;;;5073397;28;20047;-70
2023/08/17 11:53:22;;;;;;;4.43;1.50;;;19.10;99.90;;;;;;5091338;28;20035;-70
2023/08/17 11:55:48;;;;;;;5.07;1.45;;;19.10;99.90;;;;;;5091099;28;20389;-70
2023/08/17 11:58:14;;;;;;;3.70;1.48;;;19.10;99.90;;;;;;5091050;28;20515;-70
2023/08/17 12:00:42;;;;;;;5.32;1.70;;;19.20;99.90;;;;;;5091362;28;20555;-70
2023/08/17 12:03:07;;;;;;;3.03;1.30;;;19.20;99.90;;;;;;5090125;28;20047;-71
2023/08/17 12:05:33;;;;;;;4.00;1.52;;;19.20;99.90;;;;;;5089827;28;20038;-70
2023/08/17 12:08:02;;;;;;;4.55;1.50;;;19.30;99.90;;;;;;5089783;28;20399;-70
2023/08/17 12:10:29;;;;;;;5.55;1.45;;;19.30;99.90;;;;;;5090519;28;20123;-71
2023/08/17 12:12:58;;;;;;;2.55;1.45;;;19.30;99.90;;;;;;5090277;28;20044;-70
2023/08/17 12:15:26;;;;;;;5.40;1.63;;;19.30;99.90;;;;;;5073136;28;20085;-70
2023/08/17 12:17:52;;;;;;;3.50;1.75;;;19.30;99.90;;;;;;5090929;28;20409;-70
2023/08/17 12:20:21;;;;;;;3.15;1.48;;;19.30;99.90;;;;;;5073122;28;20413;-70
2023/08/17 12:22:47;;;;;;;5.97;1.60;;;19.30;99.90;;;;;;5072499;28;20038;-70
2023/08/17 12:25:13;;;;;;;3.25;1.60;;;19.30;99.90;;;;;;5090675;28;20490;-70
2023/08/17 12:27:39;;;;;;;5.28;2.13;;;19.30;99.90;;;;;;5089114;28;20056;-70
2023/08/17 12:30:13;;;;;;;3.25;1.48;;;19.30;99.90;;;;;;5089397;28;20134;-70
2023/08/17 12:32:40;;;;;;;4.28;1.48;;;19.30;99.90;;;;;;5089448;28;20537;-70
2023/08/17 12:35:05;;;;;;;2.85;1.58;;;19.40;99.90;;;;;;5090649;28;20128;-70
2023/08/17 12:37:31;;;;;;;5.20;1.92;;;19.40;99.90;;;;;;5090339;28;20061;-70
2023/08/17 12:39:57;;;;;;;4.05;1.70;;;19.40;99.90;;;;;;5090924;28;20604;-71
2023/08/17 12:42:22;;;;;;;2.60;1.50;;;19.40;99.90;;;;;;5073085;28;20097;-70
2023/08/17 12:44:49;;;;;;;3.58;1.70;;;19.40;99.90;;;;;;5090718;28;20541;-70
2023/08/17 12:47:14;;;;;;;2.53;1.42;;;19.40;99.90;;;;;;5089370;28;20040;-70